sensor_id;sensor_type;location;lat;lon;timestamp;temperature;humidity
54788;DHT22;59598;48.112;16.280;2023-11-21T00:00:24;9.50;99.90
54788;DHT22;59598;48.112;16.280;2023-11-21T00:02:55;9.40;99.90
54788;DHT22;59598;48.112;16.280;2023-11-21T00:05:32;9.50;99.90
54788;DHT22;59598;48.112;16.280;2023-11-21T00:08:08;9.40;99.90
54788;DHT22;59598;48.112;16.280;2023-11-21T00:10:39;9.40;99.90
54788;DHT22;59598;48.112;16.280;2023-11-21T00:13:15;9.40;99.90
54788;DHT22;59598;48.112;16.280;2023-11-21T00:15:51;9.40;99.90
54788;DHT22;59598;48.112;16.280;2023-11-21T00:18:22;9.30;99.90
54788;DHT22;59598;48.112;16.280;2023-11-21T00:20:53;9.30;99.90
54788;DHT22;59598;48.112;16.280;2023-11-21T00:23:24;9.30;99.90
54788;DHT22;59598;48.112;16.280;2023-11-21T00:25:58;9.30;99.90
54788;DHT22;59598;48.112;16.280;2023-11-21T00:28:29;9.30;99.90
54788;DHT22;59598;48.112;16.280;2023-11-21T00:31:01;9.30;99.90
54788;DHT22;59598;48.112;16.280;2023-11-21T00:33:35;9.30;99.90
54788;DHT22;59598;48.112;16.280;2023-11-21T00:36:12;9.40;99.90
54788;DHT22;59598;48.112;16.280;2023-11-21T00:38:47;9.40;99.90
54788;DHT22;59598;48.112;16.280;2023-11-21T00:41:21;9.40;99.90
54788;DHT22;59598;48.112;16.280;2023-11-21T00:43:53;9.50;99.90
54788;DHT22;59598;48.112;16.280;2023-11-21T00:46:28;9.40;99.90
54788;DHT22;59598;48.112;16.280;2023-11-21T00:49:03;9.60;99.90
54788;DHT22;59598;48.112;16.280;2023-11-21T00:51:35;9.60;99.90
54788;DHT22;59598;48.112;16.280;2023-11-21T00:54:08;9.60;99.90
54788;DHT22;59598;48.112;16.280;2023-11-21T00:56:39;9.50;99.90
54788;DHT22;59598;48.112;16.280;2023-11-21T00:59:13;9.50;99.90
54788;DHT22;59598;48.112;16.280;2023-11-21T01:04:26;9.40;99.90
54788;DHT22;59598;48.112;16.280;2023-11-21T01:06:57;9.30;99.90
54788;DHT22;59598;48.112;16.280;2023-11-21T01:09:29;9.30;99.90
54788;DHT22;59598;48.112;16.280;2023-11-21T01:12:03;9.40;99.90
54788;DHT22;59598;48.112;16.280;2023-11-21T01:14:37;9.40;99.90
54788;DHT22;59598;48.112;16.280;2023-11-21T01:17:11;9.30;99.90
54788;DHT22;59598;48.112;16.280;2023-11-21T01:19:43;9.30;99.90
54788;DHT22;59598;48.112;16.280;2023-11-21T01:22:14;9.30;99.90
54788;DHT22;59598;48.112;16.280;2023-11-21T01:24:47;9.30;99.90
54788;DHT22;59598;48.112;16.280;2023-11-21T01:27:18;9.30;99.90
54788;DHT22;59598;48.112;16.280;2023-11-21T01:29:49;9.30;99.90
54788;DHT22;59598;48.112;16.280;2023-11-21T01:32:27;9.20;99.90
54788;DHT22;59598;48.112;16.280;2023-11-21T01:34:59;9.20;99.90
54788;DHT22;59598;48.112;16.280;2023-11-21T01:37:33;9.20;99.90
54788;DHT22;59598;48.112;16.280;2023-11-21T01:40:05;9.10;99.90
54788;DHT22;59598;48.112;16.280;2023-11-21T01:42:41;9.20;99.90
54788;DHT22;59598;48.112;16.280;2023-11-21T01:45:14;9.20;99.90
54788;DHT22;59598;48.112;16.280;2023-11-21T01:47:48;9.30;99.90
54788;DHT22;59598;48.112;16.280;2023-11-21T01:50:20;9.30;99.90
54788;DHT22;59598;48.112;16.280;2023-11-21T01:52:53;9.30;99.90
54788;DHT22;59598;48.112;16.280;2023-11-21T01:55:25;9.20;99.90
54788;DHT22;59598;48.112;16.280;2023-11-21T01:58:00;9.30;99.90
54788;DHT22;59598;48.112;16.280;2023-11-21T02:00:35;9.20;99.90
54788;DHT22;59598;48.112;16.280;2023-11-21T02:03:06;8.90;99.90
54788;DHT22;59598;48.112;16.280;2023-11-21T02:05:38;8.80;99.90
54788;DHT22;59598;48.112;16.280;2023-11-21T02:08:15;8.60;99.90
54788;DHT22;59598;48.112;16.280;2023-11-21T02:10:49;8.50;1.00
54788;DHT22;59598;48.112;16.280;2023-11-21T02:13:20;8.30;1.00
54788;DHT22;59598;48.112;16.280;2023-11-21T02:15:53;8.20;99.90
54788;DHT22;59598;48.112;16.280;2023-11-21T02:18:38;8.10;99.90
54788;DHT22;59598;48.112;16.280;2023-11-21T02:21:15;8.10;1.00
54788;DHT22;59598;48.112;16.280;2023-11-21T02:23:46;8.10;1.00
54788;DHT22;59598;48.112;16.280;2023-11-21T02:26:20;8.10;1.00
54788;DHT22;59598;48.112;16.280;2023-11-21T02:28:51;8.10;1.00
54788;DHT22;59598;48.112;16.280;2023-11-21T02:31:24;8.10;1.00
54788;DHT22;59598;48.112;16.280;2023-11-21T02:33:55;8.00;1.00
54788;DHT22;59598;48.112;16.280;2023-11-21T02:36:26;8.00;47.00
54788;DHT22;59598;48.112;16.280;2023-11-21T02:39:00;8.00;95.90
54788;DHT22;59598;48.112;16.280;2023-11-21T02:41:34;8.00;44.20
54788;DHT22;59598;48.112;16.280;2023-11-21T02:44:08;8.10;1.00
54788;DHT22;59598;48.112;16.280;2023-11-21T02:46:40;8.20;1.00
54788;DHT22;59598;48.112;16.280;2023-11-21T02:49:11;8.20;1.00
54788;DHT22;59598;48.112;16.280;2023-11-21T02:51:44;8.30;1.00
54788;DHT22;59598;48.112;16.280;2023-11-21T02:54:15;8.40;99.90
54788;DHT22;59598;48.112;16.280;2023-11-21T02:56:50;8.40;99.90
54788;DHT22;59598;48.112;16.280;2023-11-21T02:59:21;8.20;1.00
54788;DHT22;59598;48.112;16.280;2023-11-21T03:01:59;8.10;1.00
54788;DHT22;59598;48.112;16.280;2023-11-21T03:04:31;8.00;1.00
54788;DHT22;59598;48.112;16.280;2023-11-21T03:07:03;7.90;49.10
54788;DHT22;59598;48.112;16.280;2023-11-21T03:09:39;7.80;99.90
54788;DHT22;59598;48.112;16.280;2023-11-21T03:12:10;7.60;1.00
54788;DHT22;59598;48.112;16.280;2023-11-21T03:14:45;7.50;1.00
54788;DHT22;59598;48.112;16.280;2023-11-21T03:17:19;7.40;99.90
54788;DHT22;59598;48.112;16.280;2023-11-21T03:19:52;7.30;99.90
54788;DHT22;59598;48.112;16.280;2023-11-21T03:22:26;7.20;1.00
54788;DHT22;59598;48.112;16.280;2023-11-21T03:24:57;7.20;1.00
54788;DHT22;59598;48.112;16.280;2023-11-21T03:27:31;7.20;1.00
54788;DHT22;59598;48.112;16.280;2023-11-21T03:30:02;7.60;70.40
54788;DHT22;59598;48.112;16.280;2023-11-21T03:32:34;8.00;99.90
54788;DHT22;59598;48.112;16.280;2023-11-21T03:35:10;8.30;1.00
54788;DHT22;59598;48.112;16.280;2023-11-21T03:37:46;8.60;75.70
54788;DHT22;59598;48.112;16.280;2023-11-21T03:40:17;8.80;1.00
54788;DHT22;59598;48.112;16.280;2023-11-21T03:42:49;9.00;1.00
54788;DHT22;59598;48.112;16.280;2023-11-21T03:45:23;9.00;1.00
54788;DHT22;59598;48.112;16.280;2023-11-21T03:47:56;9.00;1.00
54788;DHT22;59598;48.112;16.280;2023-11-21T03:50:30;9.00;1.00
54788;DHT22;59598;48.112;16.280;2023-11-21T03:53:21;9.10;99.90
54788;DHT22;59598;48.112;16.280;2023-11-21T03:55:53;9.00;99.90
54788;DHT22;59598;48.112;16.280;2023-11-21T03:58:24;8.90;1.00
54788;DHT22;59598;48.112;16.280;2023-11-21T04:00:55;8.40;1.00
54788;DHT22;59598;48.112;16.280;2023-11-21T04:03:28;8.00;99.90
54788;DHT22;59598;48.112;16.280;2023-11-21T04:06:03;7.60;11.90
54788;DHT22;59598;48.112;16.280;2023-11-21T04:08:37;7.40;1.00
54788;DHT22;59598;48.112;16.280;2023-11-21T04:11:08;7.40;1.00
54788;DHT22;59598;48.112;16.280;2023-11-21T04:13:42;7.40;1.00
54788;DHT22;59598;48.112;16.280;2023-11-21T04:16:17;7.50;1.00
54788;DHT22;59598;48.112;16.280;2023-11-21T04:18:50;7.70;1.00
54788;DHT22;59598;48.112;16.280;2023-11-21T04:21:24;8.30;99.90
54788;DHT22;59598;48.112;16.280;2023-11-21T04:23:55;8.80;1.00
54788;DHT22;59598;48.112;16.280;2023-11-21T04:26:26;8.80;1.00
54788;DHT22;59598;48.112;16.280;2023-11-21T04:28:59;8.80;1.00
54788;DHT22;59598;48.112;16.280;2023-11-21T04:31:30;8.80;1.00
54788;DHT22;59598;48.112;16.280;2023-11-21T04:34:04;8.70;1.00
54788;DHT22;59598;48.112;16.280;2023-11-21T04:36:38;8.50;1.00
54788;DHT22;59598;48.112;16.280;2023-11-21T04:39:12;8.40;1.00
54788;DHT22;59598;48.112;16.280;2023-11-21T04:41:43;8.30;1.00
54788;DHT22;59598;48.112;16.280;2023-11-21T04:44:19;8.60;1.00
54788;DHT22;59598;48.112;16.280;2023-11-21T04:46:53;8.40;1.00
54788;DHT22;59598;48.112;16.280;2023-11-21T04:49:26;8.40;1.00
54788;DHT22;59598;48.112;16.280;2023-11-21T04:52:02;8.60;1.00
54788;DHT22;59598;48.112;16.280;2023-11-21T04:54:36;8.70;1.00
54788;DHT22;59598;48.112;16.280;2023-11-21T04:57:07;8.80;1.00
54788;DHT22;59598;48.112;16.280;2023-11-21T04:59:42;8.90;1.00
54788;DHT22;59598;48.112;16.280;2023-11-21T05:02:14;8.90;1.00
54788;DHT22;59598;48.112;16.280;2023-11-21T05:04:45;9.00;1.00
54788;DHT22;59598;48.112;16.280;2023-11-21T05:07:19;9.10;1.00
54788;DHT22;59598;48.112;16.280;2023-11-21T05:09:59;9.10;1.00
54788;DHT22;59598;48.112;16.280;2023-11-21T05:12:33;9.20;1.00
54788;DHT22;59598;48.112;16.280;2023-11-21T05:15:08;9.20;1.00
54788;DHT22;59598;48.112;16.280;2023-11-21T05:17:46;9.10;1.00
54788;DHT22;59598;48.112;16.280;2023-11-21T05:20:17;9.00;1.00
54788;DHT22;59598;48.112;16.280;2023-11-21T05:22:57;9.00;1.00
54788;DHT22;59598;48.112;16.280;2023-11-21T05:25:34;8.90;1.00
54788;DHT22;59598;48.112;16.280;2023-11-21T05:28:07;9.00;1.00
54788;DHT22;59598;48.112;16.280;2023-11-21T05:30:42;9.00;1.00
54788;DHT22;59598;48.112;16.280;2023-11-21T05:33:13;8.90;1.00
54788;DHT22;59598;48.112;16.280;2023-11-21T05:35:46;8.80;1.00
54788;DHT22;59598;48.112;16.280;2023-11-21T05:38:21;8.80;1.00
54788;DHT22;59598;48.112;16.280;2023-11-21T05:40:55;8.70;1.00
54788;DHT22;59598;48.112;16.280;2023-11-21T05:43:26;8.60;1.00
54788;DHT22;59598;48.112;16.280;2023-11-21T05:46:01;8.50;1.00
54788;DHT22;59598;48.112;16.280;2023-11-21T05:48:36;8.50;1.00
54788;DHT22;59598;48.112;16.280;2023-11-21T05:51:10;8.50;1.00
54788;DHT22;59598;48.112;16.280;2023-11-21T05:53:43;8.40;1.00
54788;DHT22;59598;48.112;16.280;2023-11-21T05:56:17;8.40;1.00
54788;DHT22;59598;48.112;16.280;2023-11-21T05:58:49;8.40;1.00
54788;DHT22;59598;48.112;16.280;2023-11-21T06:01:21;8.40;1.00
54788;DHT22;59598;48.112;16.280;2023-11-21T06:03:53;8.40;1.00
54788;DHT22;59598;48.112;16.280;2023-11-21T06:06:25;8.30;1.00
54788;DHT22;59598;48.112;16.280;2023-11-21T06:08:57;8.40;1.00
54788;DHT22;59598;48.112;16.280;2023-11-21T06:11:28;8.40;1.00
54788;DHT22;59598;48.112;16.280;2023-11-21T06:14:00;8.40;1.00
54788;DHT22;59598;48.112;16.280;2023-11-21T06:16:33;8.40;1.00
54788;DHT22;59598;48.112;16.280;2023-11-21T06:19:04;8.40;1.00
54788;DHT22;59598;48.112;16.280;2023-11-21T06:21:38;8.50;1.00
54788;DHT22;59598;48.112;16.280;2023-11-21T06:24:10;8.60;1.00
54788;DHT22;59598;48.112;16.280;2023-11-21T06:26:41;8.70;1.00
54788;DHT22;59598;48.112;16.280;2023-11-21T06:29:17;8.80;1.00
54788;DHT22;59598;48.112;16.280;2023-11-21T06:31:49;8.80;1.00
54788;DHT22;59598;48.112;16.280;2023-11-21T06:34:20;8.90;1.00
54788;DHT22;59598;48.112;16.280;2023-11-21T06:36:52;8.90;1.00
54788;DHT22;59598;48.112;16.280;2023-11-21T06:39:25;8.90;1.00
54788;DHT22;59598;48.112;16.280;2023-11-21T06:41:56;8.90;1.00
54788;DHT22;59598;48.112;16.280;2023-11-21T06:44:28;8.90;1.00
54788;DHT22;59598;48.112;16.280;2023-11-21T06:46:59;8.80;1.00
54788;DHT22;59598;48.112;16.280;2023-11-21T06:49:32;8.80;1.00
54788;DHT22;59598;48.112;16.280;2023-11-21T06:52:07;8.90;1.00
54788;DHT22;59598;48.112;16.280;2023-11-21T06:54:39;9.00;1.00
54788;DHT22;59598;48.112;16.280;2023-11-21T06:57:13;9.10;1.00
54788;DHT22;59598;48.112;16.280;2023-11-21T06:59:45;9.20;1.00
54788;DHT22;59598;48.112;16.280;2023-11-21T07:02:16;9.20;1.00
54788;DHT22;59598;48.112;16.280;2023-11-21T07:04:51;9.30;1.00
54788;DHT22;59598;48.112;16.280;2023-11-21T07:07:22;9.30;1.00
54788;DHT22;59598;48.112;16.280;2023-11-21T07:09:54;9.30;1.00
54788;DHT22;59598;48.112;16.280;2023-11-21T07:12:25;9.30;1.00
54788;DHT22;59598;48.112;16.280;2023-11-21T07:14:57;9.30;1.00
54788;DHT22;59598;48.112;16.280;2023-11-21T07:17:31;9.30;1.00
54788;DHT22;59598;48.112;16.280;2023-11-21T07:20:03;9.30;1.00
54788;DHT22;59598;48.112;16.280;2023-11-21T07:22:34;9.30;1.00
54788;DHT22;59598;48.112;16.280;2023-11-21T07:25:11;9.20;1.00
54788;DHT22;59598;48.112;16.280;2023-11-21T07:27:48;9.20;1.00
54788;DHT22;59598;48.112;16.280;2023-11-21T07:30:19;9.20;1.00
54788;DHT22;59598;48.112;16.280;2023-11-21T07:32:53;9.20;1.00
54788;DHT22;59598;48.112;16.280;2023-11-21T07:35:27;9.20;1.00
54788;DHT22;59598;48.112;16.280;2023-11-21T07:37:58;9.20;1.00
54788;DHT22;59598;48.112;16.280;2023-11-21T07:40:31;9.10;1.00
54788;DHT22;59598;48.112;16.280;2023-11-21T07:43:05;9.10;1.00
54788;DHT22;59598;48.112;16.280;2023-11-21T07:45:39;9.20;1.00
54788;DHT22;59598;48.112;16.280;2023-11-21T07:48:16;9.20;1.00
54788;DHT22;59598;48.112;16.280;2023-11-21T07:50:50;9.30;1.00
54788;DHT22;59598;48.112;16.280;2023-11-21T07:53:24;9.50;1.00
54788;DHT22;59598;48.112;16.280;2023-11-21T07:55:56;9.70;1.00
54788;DHT22;59598;48.112;16.280;2023-11-21T07:58:28;9.80;1.00
54788;DHT22;59598;48.112;16.280;2023-11-21T08:01:02;10.00;1.00
54788;DHT22;59598;48.112;16.280;2023-11-21T08:03:36;10.30;1.00
54788;DHT22;59598;48.112;16.280;2023-11-21T08:06:08;10.50;1.00
54788;DHT22;59598;48.112;16.280;2023-11-21T08:08:39;10.80;1.00
54788;DHT22;59598;48.112;16.280;2023-11-21T08:11:12;11.00;1.00
54788;DHT22;59598;48.112;16.280;2023-11-21T08:13:43;11.20;1.00
54788;DHT22;59598;48.112;16.280;2023-11-21T08:16:17;11.30;1.00
54788;DHT22;59598;48.112;16.280;2023-11-21T08:18:49;11.50;1.00
54788;DHT22;59598;48.112;16.280;2023-11-21T08:21:20;11.40;1.00
54788;DHT22;59598;48.112;16.280;2023-11-21T08:23:57;11.40;99.90
54788;DHT22;59598;48.112;16.280;2023-11-21T08:26:28;11.20;1.00
54788;DHT22;59598;48.112;16.280;2023-11-21T08:28:59;11.00;99.90
54788;DHT22;59598;48.112;16.280;2023-11-21T08:31:31;10.80;99.90
54788;DHT22;59598;48.112;16.280;2023-11-21T08:34:04;10.70;99.90
54788;DHT22;59598;48.112;16.280;2023-11-21T08:36:35;10.70;99.90
54788;DHT22;59598;48.112;16.280;2023-11-21T08:39:09;10.50;99.90
54788;DHT22;59598;48.112;16.280;2023-11-21T08:41:43;10.50;99.90
54788;DHT22;59598;48.112;16.280;2023-11-21T08:44:14;10.60;99.90
54788;DHT22;59598;48.112;16.280;2023-11-21T08:46:49;10.60;99.90
54788;DHT22;59598;48.112;16.280;2023-11-21T08:49:20;10.70;99.90
54788;DHT22;59598;48.112;16.280;2023-11-21T08:51:51;10.90;99.90
54788;DHT22;59598;48.112;16.280;2023-11-21T08:54:22;11.00;99.90
54788;DHT22;59598;48.112;16.280;2023-11-21T08:56:54;11.00;99.90
54788;DHT22;59598;48.112;16.280;2023-11-21T08:59:29;10.80;99.90
54788;DHT22;59598;48.112;16.280;2023-11-21T09:02:00;11.00;99.90
54788;DHT22;59598;48.112;16.280;2023-11-21T09:04:33;11.30;99.90
54788;DHT22;59598;48.112;16.280;2023-11-21T09:07:05;11.30;99.90
54788;DHT22;59598;48.112;16.280;2023-11-21T09:09:37;11.40;99.90
54788;DHT22;59598;48.112;16.280;2023-11-21T09:12:15;11.60;99.90
54788;DHT22;59598;48.112;16.280;2023-11-21T09:14:46;11.60;99.90
54788;DHT22;59598;48.112;16.280;2023-11-21T09:17:18;11.60;99.90
54788;DHT22;59598;48.112;16.280;2023-11-21T09:19:52;11.60;99.90
54788;DHT22;59598;48.112;16.280;2023-11-21T09:22:23;11.80;99.90
54788;DHT22;59598;48.112;16.280;2023-11-21T09:25:00;11.90;99.90
54788;DHT22;59598;48.112;16.280;2023-11-21T09:27:31;11.70;99.90
54788;DHT22;59598;48.112;16.280;2023-11-21T09:30:03;11.50;99.90
54788;DHT22;59598;48.112;16.280;2023-11-21T09:32:40;11.50;99.90
54788;DHT22;59598;48.112;16.280;2023-11-21T09:35:18;11.60;99.90
54788;DHT22;59598;48.112;16.280;2023-11-21T09:37:49;11.70;99.90
54788;DHT22;59598;48.112;16.280;2023-11-21T09:40:23;11.40;99.90
54788;DHT22;59598;48.112;16.280;2023-11-21T09:42:58;11.20;99.90
54788;DHT22;59598;48.112;16.280;2023-11-21T09:45:34;11.20;99.90
54788;DHT22;59598;48.112;16.280;2023-11-21T09:48:07;11.10;99.90
54788;DHT22;59598;48.112;16.280;2023-11-21T09:50:43;11.30;99.90
54788;DHT22;59598;48.112;16.280;2023-11-21T09:53:21;11.40;99.90
54788;DHT22;59598;48.112;16.280;2023-11-21T09:55:54;11.50;99.90
54788;DHT22;59598;48.112;16.280;2023-11-21T09:58:27;11.60;99.90
54788;DHT22;59598;48.112;16.280;2023-11-21T10:01:01;11.70;99.90
54788;DHT22;59598;48.112;16.280;2023-11-21T10:03:38;11.80;99.90
54788;DHT22;59598;48.112;16.280;2023-11-21T10:06:10;11.70;99.90
54788;DHT22;59598;48.112;16.280;2023-11-21T10:08:46;11.30;99.90
54788;DHT22;59598;48.112;16.280;2023-11-21T10:11:18;11.30;99.90
54788;DHT22;59598;48.112;16.280;2023-11-21T10:13:53;11.30;99.90
54788;DHT22;59598;48.112;16.280;2023-11-21T10:16:31;11.30;99.90
54788;DHT22;59598;48.112;16.280;2023-11-21T10:19:03;11.60;99.90
54788;DHT22;59598;48.112;16.280;2023-11-21T10:21:35;11.80;99.90
54788;DHT22;59598;48.112;16.280;2023-11-21T10:24:09;11.90;99.90
54788;DHT22;59598;48.112;16.280;2023-11-21T10:26:43;11.70;99.90
54788;DHT22;59598;48.112;16.280;2023-11-21T10:29:19;11.70;99.90
54788;DHT22;59598;48.112;16.280;2023-11-21T10:31:57;12.60;99.90
54788;DHT22;59598;48.112;16.280;2023-11-21T10:34:33;13.70;99.90
54788;DHT22;59598;48.112;16.280;2023-11-21T10:37:11;15.00;1.00
54788;DHT22;59598;48.112;16.280;2023-11-21T10:39:45;15.40;1.00
54788;DHT22;59598;48.112;16.280;2023-11-21T10:42:18;15.10;1.00
54788;DHT22;59598;48.112;16.280;2023-11-21T10:44:51;15.70;1.00
54788;DHT22;59598;48.112;16.280;2023-11-21T10:47:25;16.60;1.00
54788;DHT22;59598;48.112;16.280;2023-11-21T10:50:00;16.00;1.00
54788;DHT22;59598;48.112;16.280;2023-11-21T10:52:34;14.90;99.90
54788;DHT22;59598;48.112;16.280;2023-11-21T10:55:17;14.10;99.90
54788;DHT22;59598;48.112;16.280;2023-11-21T10:57:53;13.80;1.00
54788;DHT22;59598;48.112;16.280;2023-11-21T11:00:30;13.10;99.90
54788;DHT22;59598;48.112;16.280;2023-11-21T11:03:06;12.30;99.90
54788;DHT22;59598;48.112;16.280;2023-11-21T11:05:44;11.80;1.00
54788;DHT22;59598;48.112;16.280;2023-11-21T11:08:22;11.60;1.00
54788;DHT22;59598;48.112;16.280;2023-11-21T11:10:57;11.70;1.00
54788;DHT22;59598;48.112;16.280;2023-11-21T11:13:30;11.90;1.00
54788;DHT22;59598;48.112;16.280;2023-11-21T11:16:08;11.70;1.00
54788;DHT22;59598;48.112;16.280;2023-11-21T11:18:41;11.80;1.00
54788;DHT22;59598;48.112;16.280;2023-11-21T11:30:07;12.40;1.00
54788;DHT22;59598;48.112;16.280;2023-11-21T11:33:35;11.90;1.00
54788;DHT22;59598;48.112;16.280;2023-11-21T11:38:50;11.30;1.00
54788;DHT22;59598;48.112;16.280;2023-11-21T11:41:30;11.20;1.00
54788;DHT22;59598;48.112;16.280;2023-11-21T11:44:03;11.30;1.00
54788;DHT22;59598;48.112;16.280;2023-11-21T11:46:59;11.20;1.00
54788;DHT22;59598;48.112;16.280;2023-11-21T11:49:31;11.10;1.00
54788;DHT22;59598;48.112;16.280;2023-11-21T11:55:19;11.60;1.00
54788;DHT22;59598;48.112;16.280;2023-11-21T11:57:54;11.70;1.00
54788;DHT22;59598;48.112;16.280;2023-11-21T12:03:03;11.40;1.00
54788;DHT22;59598;48.112;16.280;2023-11-21T12:05:35;11.10;1.00
54788;DHT22;59598;48.112;16.280;2023-11-21T12:08:12;10.90;1.00
54788;DHT22;59598;48.112;16.280;2023-11-21T12:10:43;10.80;1.00
54788;DHT22;59598;48.112;16.280;2023-11-21T12:13:15;10.70;1.00
54788;DHT22;59598;48.112;16.280;2023-11-21T12:15:49;10.80;1.00
54788;DHT22;59598;48.112;16.280;2023-11-21T12:18:21;10.80;1.00
54788;DHT22;59598;48.112;16.280;2023-11-21T12:20:52;10.70;1.00
54788;DHT22;59598;48.112;16.280;2023-11-21T12:23:24;10.80;1.00
54788;DHT22;59598;48.112;16.280;2023-11-21T12:26:00;11.00;1.00
54788;DHT22;59598;48.112;16.280;2023-11-21T12:28:34;11.00;1.00
54788;DHT22;59598;48.112;16.280;2023-11-21T12:31:05;11.00;1.00
54788;DHT22;59598;48.112;16.280;2023-11-21T12:33:40;11.00;1.00
54788;DHT22;59598;48.112;16.280;2023-11-21T12:36:14;10.80;1.00
54788;DHT22;59598;48.112;16.280;2023-11-21T12:38:50;10.80;1.00
54788;DHT22;59598;48.112;16.280;2023-11-21T12:41:21;10.80;1.00
54788;DHT22;59598;48.112;16.280;2023-11-21T12:43:53;10.90;1.00
54788;DHT22;59598;48.112;16.280;2023-11-21T12:46:25;11.10;1.00
54788;DHT22;59598;48.112;16.280;2023-11-21T12:49:02;11.30;1.00
54788;DHT22;59598;48.112;16.280;2023-11-21T12:51:34;11.50;1.00
54788;DHT22;59598;48.112;16.280;2023-11-21T12:54:06;11.50;1.00
54788;DHT22;59598;48.112;16.280;2023-11-21T12:56:45;11.60;1.00
54788;DHT22;59598;48.112;16.280;2023-11-21T12:59:20;11.60;1.00
54788;DHT22;59598;48.112;16.280;2023-11-21T13:01:51;11.60;1.00
54788;DHT22;59598;48.112;16.280;2023-11-21T13:04:32;11.60;1.00
54788;DHT22;59598;48.112;16.280;2023-11-21T13:07:08;11.60;1.00
54788;DHT22;59598;48.112;16.280;2023-11-21T13:09:45;11.50;1.00
54788;DHT22;59598;48.112;16.280;2023-11-21T13:12:20;11.40;1.00
54788;DHT22;59598;48.112;16.280;2023-11-21T13:14:55;11.20;1.00
54788;DHT22;59598;48.112;16.280;2023-11-21T13:17:27;11.30;1.00
54788;DHT22;59598;48.112;16.280;2023-11-21T13:19:59;11.20;1.00
54788;DHT22;59598;48.112;16.280;2023-11-21T13:22:30;11.10;1.00
54788;DHT22;59598;48.112;16.280;2023-11-21T13:25:04;11.00;1.00
54788;DHT22;59598;48.112;16.280;2023-11-21T13:27:38;11.00;1.00
54788;DHT22;59598;48.112;16.280;2023-11-21T13:30:16;10.90;1.00
54788;DHT22;59598;48.112;16.280;2023-11-21T13:32:56;11.00;1.00
54788;DHT22;59598;48.112;16.280;2023-11-21T13:35:34;11.10;1.00
54788;DHT22;59598;48.112;16.280;2023-11-21T13:38:13;11.10;1.00
54788;DHT22;59598;48.112;16.280;2023-11-21T13:40:54;11.10;1.00
54788;DHT22;59598;48.112;16.280;2023-11-21T13:43:25;11.00;1.00
54788;DHT22;59598;48.112;16.280;2023-11-21T13:45:59;11.00;1.00
54788;DHT22;59598;48.112;16.280;2023-11-21T13:48:49;11.00;1.00
54788;DHT22;59598;48.112;16.280;2023-11-21T13:51:29;11.00;1.00
54788;DHT22;59598;48.112;16.280;2023-11-21T13:54:11;10.80;1.00
54788;DHT22;59598;48.112;16.280;2023-11-21T13:56:46;10.80;1.00
54788;DHT22;59598;48.112;16.280;2023-11-21T13:59:17;10.70;1.00
54788;DHT22;59598;48.112;16.280;2023-11-21T14:01:57;10.60;1.00
54788;DHT22;59598;48.112;16.280;2023-11-21T14:04:34;10.50;1.00
54788;DHT22;59598;48.112;16.280;2023-11-21T14:07:20;10.40;1.00
54788;DHT22;59598;48.112;16.280;2023-11-21T14:10:06;10.20;90.50
54788;DHT22;59598;48.112;16.280;2023-11-21T14:12:47;10.10;99.90
54788;DHT22;59598;48.112;16.280;2023-11-21T14:15:20;10.10;99.90
54788;DHT22;59598;48.112;16.280;2023-11-21T14:18:01;10.10;1.00
54788;DHT22;59598;48.112;16.280;2023-11-21T14:20:38;10.20;1.00
54788;DHT22;59598;48.112;16.280;2023-11-21T14:23:10;10.20;1.00
54788;DHT22;59598;48.112;16.280;2023-11-21T14:25:42;10.30;1.00
54788;DHT22;59598;48.112;16.280;2023-11-21T14:28:14;10.30;1.00
54788;DHT22;59598;48.112;16.280;2023-11-21T14:30:47;10.40;1.00
54788;DHT22;59598;48.112;16.280;2023-11-21T14:33:21;10.50;1.00
54788;DHT22;59598;48.112;16.280;2023-11-21T14:35:52;10.50;1.00
54788;DHT22;59598;48.112;16.280;2023-11-21T14:38:28;10.40;1.00
54788;DHT22;59598;48.112;16.280;2023-11-21T14:40:59;10.20;1.00
54788;DHT22;59598;48.112;16.280;2023-11-21T14:43:34;10.10;99.90
54788;DHT22;59598;48.112;16.280;2023-11-21T14:46:12;10.00;1.00
54788;DHT22;59598;48.112;16.280;2023-11-21T14:48:49;9.90;1.00
54788;DHT22;59598;48.112;16.280;2023-11-21T14:51:43;9.70;42.00
54788;DHT22;59598;48.112;16.280;2023-11-21T14:54:32;9.50;99.90
54788;DHT22;59598;48.112;16.280;2023-11-21T14:57:21;9.30;1.00
54788;DHT22;59598;48.112;16.280;2023-11-21T15:00:11;9.00;99.90
54788;DHT22;59598;48.112;16.280;2023-11-21T15:03:03;8.90;99.90
54788;DHT22;59598;48.112;16.280;2023-11-21T15:05:35;8.70;1.00
54788;DHT22;59598;48.112;16.280;2023-11-21T15:08:13;8.60;1.00
54788;DHT22;59598;48.112;16.280;2023-11-21T15:10:54;8.50;1.00
54788;DHT22;59598;48.112;16.280;2023-11-21T15:13:28;8.40;1.00
54788;DHT22;59598;48.112;16.280;2023-11-21T15:16:03;8.30;1.00
54788;DHT22;59598;48.112;16.280;2023-11-21T15:18:38;8.20;1.00
54788;DHT22;59598;48.112;16.280;2023-11-21T15:21:10;8.20;1.00
54788;DHT22;59598;48.112;16.280;2023-11-21T15:23:42;8.20;1.00
54788;DHT22;59598;48.112;16.280;2023-11-21T15:26:19;8.10;1.00
54788;DHT22;59598;48.112;16.280;2023-11-21T15:28:54;8.10;1.00
54788;DHT22;59598;48.112;16.280;2023-11-21T15:31:27;8.00;1.00
54788;DHT22;59598;48.112;16.280;2023-11-21T15:33:59;8.00;1.00
54788;DHT22;59598;48.112;16.280;2023-11-21T15:36:31;8.00;1.00
54788;DHT22;59598;48.112;16.280;2023-11-21T15:39:05;7.90;1.00
54788;DHT22;59598;48.112;16.280;2023-11-21T15:41:38;7.90;1.00
54788;DHT22;59598;48.112;16.280;2023-11-21T15:44:10;7.90;1.00
54788;DHT22;59598;48.112;16.280;2023-11-21T15:46:42;7.80;1.00
54788;DHT22;59598;48.112;16.280;2023-11-21T15:49:13;7.80;1.00
54788;DHT22;59598;48.112;16.280;2023-11-21T15:51:54;7.80;1.00
54788;DHT22;59598;48.112;16.280;2023-11-21T15:54:32;7.80;1.00
54788;DHT22;59598;48.112;16.280;2023-11-21T15:57:05;7.70;1.00
54788;DHT22;59598;48.112;16.280;2023-11-21T15:59:40;7.70;1.00
54788;DHT22;59598;48.112;16.280;2023-11-21T16:02:13;7.70;1.00
54788;DHT22;59598;48.112;16.280;2023-11-21T16:04:46;7.70;1.00
54788;DHT22;59598;48.112;16.280;2023-11-21T16:07:17;7.60;1.00
54788;DHT22;59598;48.112;16.280;2023-11-21T16:09:49;7.60;1.00
54788;DHT22;59598;48.112;16.280;2023-11-21T16:12:20;7.60;1.00
54788;DHT22;59598;48.112;16.280;2023-11-21T16:14:52;7.60;1.00
54788;DHT22;59598;48.112;16.280;2023-11-21T16:17:25;7.60;1.00
54788;DHT22;59598;48.112;16.280;2023-11-21T16:19:57;7.70;1.00
54788;DHT22;59598;48.112;16.280;2023-11-21T16:22:28;7.70;1.00
54788;DHT22;59598;48.112;16.280;2023-11-21T16:25:00;7.70;1.00
54788;DHT22;59598;48.112;16.280;2023-11-21T16:27:35;7.80;1.00
54788;DHT22;59598;48.112;16.280;2023-11-21T16:30:10;7.80;1.00
54788;DHT22;59598;48.112;16.280;2023-11-21T16:32:41;7.70;1.00
54788;DHT22;59598;48.112;16.280;2023-11-21T16:35:17;7.70;1.00
54788;DHT22;59598;48.112;16.280;2023-11-21T16:37:50;7.70;1.00